Time;durP1;ratioP1;P1;durP2;ratioP2;P2;SDS_P1;SDS_P2;PMS_P1;PMS_P2;Temp;Humidity;BMP_temperature;BMP_pressure;BME280_temperature;BME280_humidity;BME280_pressure;Samples;Min_cycle;Max_cycle;Signal;HPM_P1;HPM_P2
2020/12/04 00:00:10;;;;;;;1.10;0.47;;;15.70;60.30;;;;;;5073696;28;20075;-72
2020/12/04 00:02:36;;;;;;;0.70;0.55;;;15.70;60.20;;;;;;5073893;28;20027;-73
2020/12/04 00:05:02;;;;;;;0.95;0.50;;;15.60;60.20;;;;;;5073562;28;20020;-72
2020/12/04 00:07:28;;;;;;;4.47;0.75;;;15.70;60.30;;;;;;5073861;28;20033;-73
2020/12/04 00:09:54;;;;;;;0.50;0.30;;;15.60;60.30;;;;;;5073697;28;20038;-73
2020/12/04 00:12:19;;;;;;;0.63;0.45;;;15.60;60.30;;;;;;5073733;28;20028;-72
2020/12/04 00:14:46;;;;;;;0.73;0.57;;;15.60;60.30;;;;;;5073627;28;20046;-72
2020/12/04 00:17:11;;;;;;;0.85;0.40;;;15.60;60.30;;;;;;5073528;28;20088;-73
2020/12/04 00:19:37;;;;;;;1.23;0.40;;;15.60;60.30;;;;;;5073506;28;20056;-72
2020/12/04 00:22:03;;;;;;;0.40;0.40;;;15.60;60.30;;;;;;5074339;27;20056;-72
2020/12/04 00:24:29;;;;;;;0.40;0.40;;;15.60;60.30;;;;;;5073393;28;20024;-73
2020/12/04 00:26:55;;;;;;;1.27;0.50;;;15.50;60.20;;;;;;5073429;28;20020;-72
2020/12/04 00:29:22;;;;;;;0.60;0.50;;;15.60;60.40;;;;;;5073272;28;20374;-73
2020/12/04 00:31:47;;;;;;;1.73;0.40;;;15.50;60.30;;;;;;5073249;28;20150;-72
2020/12/04 00:34:13;;;;;;;0.50;0.50;;;15.50;60.40;;;;;;5073273;28;20477;-73
2020/12/04 00:36:38;;;;;;;1.05;0.60;;;15.50;60.40;;;;;;5073012;28;20032;-72
2020/12/04 00:39:04;;;;;;;0.93;0.50;;;15.50;60.50;;;;;;5073117;28;20024;-72
2020/12/04 00:41:30;;;;;;;0.40;0.40;;;15.50;60.40;;;;;;5073166;28;20016;-72
2020/12/04 00:43:55;;;;;;;0.52;0.40;;;15.50;60.50;;;;;;5073146;28;20044;-73
2020/12/04 00:46:21;;;;;;;0.40;0.40;;;15.50;60.40;;;;;;5073189;28;20024;-73
2020/12/04 00:48:46;;;;;;;1.90;0.40;;;15.40;60.40;;;;;;5072981;28;20175;-73
2020/12/04 00:51:18;;;;;;;0.60;0.40;;;15.50;60.50;;;;;;5072338;28;20043;-73
2020/12/04 00:53:43;;;;;;;1.42;0.40;;;15.50;60.50;;;;;;5072856;28;20028;-73
2020/12/04 00:56:09;;;;;;;0.52;0.50;;;15.40;60.50;;;;;;5072627;28;20031;-73
2020/12/04 00:58:35;;;;;;;0.65;0.65;;;15.40;60.50;;;;;;5072970;28;20017;-73
2020/12/04 01:01:01;;;;;;;0.95;0.43;;;15.40;60.50;;;;;;5072873;28;20421;-73
2020/12/04 01:03:27;;;;;;;0.20;0.20;;;15.40;60.60;;;;;;5072594;28;20027;-73
2020/12/04 01:05:53;;;;;;;0.57;0.25;;;15.40;60.50;;;;;;5072857;28;20021;-72
2020/12/04 01:08:18;;;;;;;0.43;0.40;;;15.40;60.50;;;;;;5072398;28;20021;-72
2020/12/04 01:10:44;;;;;;;0.35;0.35;;;15.40;60.50;;;;;;5072789;28;20033;-73
2020/12/04 01:13:09;;;;;;;0.30;0.30;;;15.40;60.60;;;;;;5072768;28;20037;-72
2020/12/04 01:15:35;;;;;;;0.40;0.40;;;15.40;60.80;;;;;;5072329;28;20476;-73
2020/12/04 01:18:00;;;;;;;0.80;0.80;;;15.50;61.30;;;;;;5072730;28;20028;-72
2020/12/04 01:20:26;;;;;;;0.30;0.30;;;15.50;61.00;;;;;;5072997;28;20028;-72
2020/12/04 01:22:52;;;;;;;0.30;0.30;;;15.60;60.90;;;;;;5072404;28;20032;-72
2020/12/04 01:25:17;;;;;;;0.90;0.35;;;15.60;60.90;;;;;;5072337;28;20021;-73
2020/12/04 01:27:43;;;;;;;0.63;0.30;;;15.70;60.70;;;;;;5072638;28;20027;-73
2020/12/04 01:30:08;;;;;;;0.30;0.20;;;15.80;60.70;;;;;;5072389;28;20146;-73
2020/12/04 01:32:34;;;;;;;0.30;0.30;;;15.80;60.70;;;;;;5072554;28;20044;-73
2020/12/04 01:34:59;;;;;;;0.20;0.20;;;15.90;60.60;;;;;;5072547;28;20482;-73
2020/12/04 01:37:25;;;;;;;0.60;0.40;;;15.90;60.50;;;;;;5072302;28;20039;-72
2020/12/04 01:39:50;;;;;;;0.30;0.30;;;15.90;60.40;;;;;;5072252;28;20064;-73
2020/12/04 01:42:16;;;;;;;0.70;0.40;;;16.00;60.50;;;;;;5072503;28;20026;-73
2020/12/04 01:44:42;;;;;;;0.50;0.30;;;16.00;60.60;;;;;;5072458;28;20078;-72
2020/12/04 01:47:07;;;;;;;0.30;0.30;;;16.00;60.60;;;;;;5072123;28;20029;-73
2020/12/04 01:49:33;;;;;;;0.52;0.30;;;16.00;60.40;;;;;;5072213;28;20044;-73
2020/12/04 01:51:59;;;;;;;0.32;0.25;;;16.00;60.40;;;;;;5072420;28;20025;-73
2020/12/04 01:54:25;;;;;;;0.30;0.30;;;16.00;60.30;;;;;;5072471;28;20501;-72
2020/12/04 01:56:51;;;;;;;0.52;0.30;;;16.10;60.20;;;;;;5072087;28;20028;-73
2020/12/04 01:59:16;;;;;;;0.82;0.40;;;16.00;60.10;;;;;;5072341;28;20104;-72
2020/12/04 02:01:44;;;;;;;0.80;0.30;;;16.00;60.30;;;;;;5072779;28;20478;-73
2020/12/04 02:04:12;;;;;;;0.30;0.30;;;15.90;60.30;;;;;;5076235;28;20068;-73
2020/12/04 02:07:01;;;;;;;0.70;0.50;;;15.90;60.10;;;;;;5075906;28;20048;-73
2020/12/04 02:09:33;;;;;;;0.30;0.30;;;15.90;60.10;;;;;;5076131;28;20431;-72
2020/12/04 02:12:04;;;;;;;1.65;0.47;;;15.90;60.60;;;;;;5075907;28;20024;-72
2020/12/04 02:14:30;;;;;;;0.52;0.30;;;15.80;59.90;;;;;;5076152;28;20020;-72
2020/12/04 02:17:01;;;;;;;0.30;0.30;;;15.80;59.80;;;;;;5075793;28;20501;-73
2020/12/04 02:19:27;;;;;;;0.20;0.20;;;15.80;60.40;;;;;;5075317;28;20024;-72
2020/12/04 02:21:59;;;;;;;0.30;0.30;;;15.80;59.70;;;;;;5095507;28;20539;-72
2020/12/04 02:24:26;;;;;;;0.50;0.30;;;15.80;59.80;;;;;;5095745;28;20116;-73
2020/12/04 02:26:53;;;;;;;0.22;0.22;;;15.80;59.80;;;;;;5096073;28;20028;-72
2020/12/04 02:29:19;;;;;;;0.30;0.30;;;15.80;59.70;;;;;;5095741;28;20020;-73
2020/12/04 02:31:45;;;;;;;0.28;0.28;;;15.80;59.70;;;;;;5096000;28;20024;-72
2020/12/04 02:34:10;;;;;;;0.40;0.40;;;15.80;59.70;;;;;;5095698;28;20038;-72
2020/12/04 02:36:36;;;;;;;0.20;0.20;;;15.70;59.70;;;;;;5095926;28;20016;-72
2020/12/04 02:39:03;;;;;;;0.30;0.30;;;15.70;59.70;;;;;;5095779;28;20019;-72
2020/12/04 02:41:28;;;;;;;0.20;0.20;;;15.70;59.80;;;;;;5095610;28;20028;-73
2020/12/04 02:43:54;;;;;;;0.90;0.20;;;15.70;59.80;;;;;;5095461;28;20024;-73
2020/12/04 02:46:20;;;;;;;0.50;0.30;;;15.60;60.10;;;;;;5095448;28;20043;-73
2020/12/04 02:48:45;;;;;;;1.20;0.40;;;15.70;59.80;;;;;;5095624;28;20016;-73
2020/12/04 02:51:11;;;;;;;0.50;0.50;;;15.60;59.80;;;;;;5095605;28;20466;-72
2020/12/04 02:53:36;;;;;;;0.82;0.22;;;15.60;59.90;;;;;;5095554;28;20424;-72
2020/12/04 02:56:02;;;;;;;0.30;0.20;;;15.60;60.00;;;;;;5095460;28;20012;-72
2020/12/04 02:58:29;;;;;;;0.47;0.30;;;15.60;59.80;;;;;;5095496;28;20470;-72
2020/12/04 03:00:55;;;;;;;0.52;0.20;;;15.60;59.90;;;;;;5095277;28;20032;-72
2020/12/04 03:03:21;;;;;;;0.30;0.30;;;15.60;59.90;;;;;;5095401;28;20016;-73
2020/12/04 03:05:46;;;;;;;0.32;0.30;;;15.60;59.90;;;;;;5095023;28;20442;-72
2020/12/04 03:08:12;;;;;;;0.20;0.20;;;15.70;60.00;;;;;;5095016;28;20028;-73
2020/12/04 03:10:37;;;;;;;0.25;0.20;;;15.60;60.00;;;;;;5094965;28;20080;-73
2020/12/04 03:13:04;;;;;;;0.32;0.32;;;15.70;60.00;;;;;;5094843;28;20024;-72
2020/12/04 03:15:29;;;;;;;0.40;0.30;;;15.70;60.00;;;;;;5095131;28;20407;-73
2020/12/04 03:17:55;;;;;;;0.30;0.30;;;15.70;59.90;;;;;;5095130;28;20046;-72
2020/12/04 03:20:20;;;;;;;0.25;0.25;;;15.70;59.90;;;;;;5094911;28;20036;-73
2020/12/04 03:22:46;;;;;;;0.22;0.22;;;15.70;59.90;;;;;;5094531;28;20135;-73
2020/12/04 03:25:12;;;;;;;0.30;0.30;;;15.80;60.10;;;;;;5095006;28;20020;-73
2020/12/04 03:27:37;;;;;;;0.20;0.20;;;15.80;60.00;;;;;;5094670;28;20141;-73
2020/12/04 03:30:03;;;;;;;0.30;0.20;;;15.80;60.10;;;;;;5094825;28;20043;-73
2020/12/04 03:32:29;;;;;;;0.75;0.40;;;15.80;60.10;;;;;;5094765;28;20036;-72
2020/12/04 03:34:55;;;;;;;0.30;0.30;;;15.80;60.10;;;;;;5094830;28;20031;-73
2020/12/04 03:37:21;;;;;;;1.75;0.20;;;15.90;59.90;;;;;;5094807;28;20024;-72
2020/12/04 03:39:47;;;;;;;0.90;0.20;;;15.90;59.80;;;;;;5094708;28;20118;-73
2020/12/04 03:42:13;;;;;;;0.45;0.25;;;16.00;59.80;;;;;;5094403;28;20051;-73
2020/12/04 03:44:38;;;;;;;1.00;0.40;;;16.00;59.70;;;;;;5094585;28;20016;-72
2020/12/04 03:47:04;;;;;;;0.30;0.30;;;16.10;59.80;;;;;;5094553;28;20474;-73
2020/12/04 03:49:30;;;;;;;0.70;0.35;;;16.10;60.30;;;;;;5094664;28;20503;-73
2020/12/04 03:51:55;;;;;;;0.20;0.20;;;16.20;59.60;;;;;;5094405;28;20043;-73
2020/12/04 03:54:21;;;;;;;0.90;0.30;;;16.20;59.70;;;;;;5094368;28;20024;-73
2020/12/04 03:56:47;;;;;;;0.10;0.10;;;16.20;59.60;;;;;;5094356;28;20016;-73
2020/12/04 03:59:12;;;;;;;0.30;0.30;;;16.20;59.50;;;;;;5093999;28;20032;-73
2020/12/04 04:01:38;;;;;;;0.20;0.20;;;16.20;59.50;;;;;;5093931;28;20031;-73
2020/12/04 04:04:03;;;;;;;0.20;0.10;;;16.20;59.50;;;;;;5093905;28;20118;-72
2020/12/04 04:06:29;;;;;;;0.30;0.20;;;16.20;59.50;;;;;;5094174;28;20024;-73
2020/12/04 04:08:54;;;;;;;0.65;0.20;;;16.20;59.50;;;;;;5093766;28;20020;-72
2020/12/04 04:11:20;;;;;;;0.30;0.20;;;16.10;59.50;;;;;;5094095;28;20020;-73
2020/12/04 04:13:46;;;;;;;0.30;0.30;;;16.10;59.70;;;;;;5094019;28;20374;-73
2020/12/04 04:16:11;;;;;;;0.30;0.30;;;16.10;59.80;;;;;;5093626;28;20386;-73
2020/12/04 04:18:37;;;;;;;0.32;0.10;;;16.10;59.80;;;;;;5093960;28;20476;-73
2020/12/04 04:21:08;;;;;;;0.40;0.40;;;16.00;59.80;;;;;;5093499;28;20040;-73
2020/12/04 04:23:34;;;;;;;0.20;0.20;;;16.00;59.90;;;;;;5093894;28;20024;-73
2020/12/04 04:25:59;;;;;;;0.40;0.20;;;15.90;59.70;;;;;;5092819;28;20501;-73
2020/12/04 04:28:25;;;;;;;0.20;0.20;;;16.00;59.70;;;;;;5093442;28;20477;-73
2020/12/04 04:30:51;;;;;;;0.68;0.40;;;15.90;59.50;;;;;;5093533;28;20024;-73
2020/12/04 04:33:16;;;;;;;0.40;0.30;;;15.90;59.50;;;;;;5093376;28;20106;-73
2020/12/04 04:35:43;;;;;;;0.65;0.45;;;15.90;59.50;;;;;;5093838;28;20107;-73
2020/12/04 04:38:09;;;;;;;0.60;0.20;;;15.90;59.60;;;;;;5093576;28;20125;-73
2020/12/04 04:40:34;;;;;;;0.20;0.20;;;15.80;59.50;;;;;;5093441;28;20362;-73
2020/12/04 04:43:11;;;;;;;0.50;0.20;;;15.80;59.60;;;;;;5093154;28;20016;-73
2020/12/04 04:45:42;;;;;;;0.30;0.30;;;15.80;59.50;;;;;;5093442;28;20050;-73
2020/12/04 04:48:27;;;;;;;;;;;15.80;59.50;;;;;;5093809;28;20020;-73
2020/12/04 04:50:56;;;;;;;0.20;0.20;;;15.80;59.60;;;;;;5092501;28;19908;-73
2020/12/04 04:53:22;;;;;;;1.55;0.10;;;15.80;59.60;;;;;;5093356;28;20020;-73
2020/12/04 04:55:48;;;;;;;1.48;0.30;;;15.80;59.70;;;;;;5092909;28;20462;-73
2020/12/04 04:58:14;;;;;;;0.50;0.40;;;15.80;59.70;;;;;;5092991;28;20534;-73
2020/12/04 05:00:40;;;;;;;0.30;0.30;;;15.70;59.70;;;;;;5092906;28;20063;-73
2020/12/04 05:03:08;;;;;;;0.95;0.30;;;15.70;59.70;;;;;;5093226;28;20377;-73
2020/12/04 05:05:47;;;;;;;0.30;0.30;;;15.70;59.70;;;;;;5093147;28;20035;-73
2020/12/04 05:08:16;;;;;;;0.20;0.20;;;15.70;59.70;;;;;;5092926;28;20039;-73
2020/12/04 05:10:43;;;;;;;0.40;0.25;;;15.70;59.70;;;;;;5092850;28;20016;-72
2020/12/04 05:13:09;;;;;;;0.20;0.20;;;15.70;59.80;;;;;;5092785;28;20024;-73
2020/12/04 05:15:36;;;;;;;0.20;0.20;;;15.70;59.80;;;;;;5093046;28;20121;-73
2020/12/04 05:18:09;;;;;;;0.13;0.13;;;15.70;59.90;;;;;;5092720;28;20028;-73
2020/12/04 05:20:37;;;;;;;0.20;0.20;;;15.70;60.10;;;;;;5092899;28;20032;-72
2020/12/04 05:23:02;;;;;;;0.20;0.20;;;16.10;60.10;;;;;;5092448;28;20123;-73
2020/12/04 05:25:40;;;;;;;0.20;0.20;;;15.80;60.00;;;;;;5093165;28;20153;-73
2020/12/04 05:28:11;;;;;;;0.75;0.10;;;15.80;60.00;;;;;;5092917;28;20025;-73
2020/12/04 05:30:37;;;;;;;0.20;0.17;;;15.90;60.50;;;;;;5092569;28;20034;-73
2020/12/04 05:33:05;;;;;;;1.25;0.20;;;15.80;60.50;;;;;;5092817;28;20019;-73
2020/12/04 05:35:31;;;;;;;0.20;0.20;;;15.90;60.60;;;;;;5093139;28;20347;-72
2020/12/04 05:38:15;;;;;;;0.17;0.17;;;15.90;60.80;;;;;;5096807;28;20043;-73
2020/12/04 05:40:43;;;;;;;0.63;0.28;;;15.90;60.60;;;;;;5096929;28;20032;-72
2020/12/04 05:43:10;;;;;;;0.17;0.17;;;16.00;60.30;;;;;;5096997;28;20024;-73
2020/12/04 05:45:35;;;;;;;0.30;0.20;;;15.90;61.00;;;;;;5096787;28;20024;-73
2020/12/04 05:48:01;;;;;;;0.30;0.22;;;16.00;60.90;;;;;;5096789;28;20421;-73
2020/12/04 05:50:27;;;;;;;0.82;0.20;;;15.90;61.00;;;;;;5096806;28;20059;-73
2020/12/04 05:52:53;;;;;;;0.20;0.20;;;16.00;60.60;;;;;;5096736;28;20413;-73
2020/12/04 05:55:19;;;;;;;0.20;0.13;;;16.20;61.10;;;;;;5096413;28;20104;-73
2020/12/04 05:57:59;;;;;;;0.10;0.10;;;16.00;60.60;;;;;;5096292;28;20091;-73
2020/12/04 06:00:25;;;;;;;1.23;0.20;;;16.10;60.70;;;;;;5096572;28;20035;-73
2020/12/04 06:03:02;;;;;;;0.20;0.20;;;16.10;60.50;;;;;;5096557;28;20020;-73
2020/12/04 06:05:28;;;;;;;0.70;0.30;;;16.10;60.00;;;;;;5096547;28;20078;-73
2020/12/04 06:08:01;;;;;;;0.40;0.20;;;16.10;60.90;;;;;;5096196;28;20043;-73
2020/12/04 06:10:29;;;;;;;0.60;0.30;;;16.10;60.60;;;;;;5096506;28;20383;-72
2020/12/04 06:12:55;;;;;;;0.22;0.20;;;16.10;60.60;;;;;;5096402;28;20021;-72
2020/12/04 06:15:26;;;;;;;0.20;0.20;;;16.10;60.50;;;;;;5096329;28;20020;-73
2020/12/04 06:18:01;;;;;;;0.20;0.20;;;16.10;60.20;;;;;;5077852;28;20020;-74
2020/12/04 06:20:26;;;;;;;1.17;0.20;;;16.20;60.20;;;;;;5096237;28;20052;-71
2020/12/04 06:23:07;;;;;;;0.50;0.20;;;16.20;60.20;;;;;;5095765;28;20525;-71
2020/12/04 06:25:50;;;;;;;;;;;16.20;60.00;;;;;;5096651;28;20047;-69
2020/12/04 06:28:17;;;;;;;0.20;0.20;;;16.30;60.00;;;;;;5096087;28;19939;-69
2020/12/04 06:31:00;;;;;;;0.98;0.25;;;16.30;60.00;;;;;;5096020;28;20031;-69
2020/12/04 06:33:54;;;;;;;1.73;0.40;;;16.30;60.00;;;;;;5095861;28;20416;-68
2020/12/04 06:36:29;;;;;;;0.30;0.30;;;16.30;59.80;;;;;;5073899;28;20059;-69
2020/12/04 06:38:54;;;;;;;0.40;0.40;;;16.30;59.80;;;;;;5095799;28;20032;-68
2020/12/04 06:41:53;;;;;;;0.57;0.30;;;16.30;60.00;;;;;;5095708;28;20058;-68
2020/12/04 06:44:23;;;;;;;0.30;0.22;;;16.30;60.30;;;;;;5039654;28;20039;-69
2020/12/04 06:46:49;;;;;;;;;;;16.40;59.60;;;;;;5096080;28;20020;-69
2020/12/04 06:52:16;;;;;;;1.33;0.45;;;16.40;59.60;;;;;;5095229;28;20432;-72
2020/12/04 06:54:45;;;;;;;4.30;0.50;;;16.40;60.00;;;;;;5095465;28;20382;-72
2020/12/04 06:57:11;;;;;;;0.38;0.30;;;16.40;59.50;;;;;;5095095;28;20528;-71
2020/12/04 06:59:39;;;;;;;0.68;0.22;;;16.50;59.20;;;;;;5094689;28;20024;-70
2020/12/04 07:02:12;;;;;;;1.55;0.25;;;16.60;59.20;;;;;;5095118;28;20093;-71
2020/12/04 07:04:46;;;;;;;1.10;0.47;;;16.40;59.10;;;;;;5095430;28;20103;-71
2020/12/04 07:07:13;;;;;;;2.65;0.60;;;16.50;59.20;;;;;;5076997;28;20043;-71
2020/12/04 07:09:42;;;;;;;1.08;0.57;;;16.50;59.10;;;;;;5094972;28;20032;-71
2020/12/04 07:12:12;;;;;;;3.30;0.40;;;16.50;59.10;;;;;;5095176;28;20048;-69
2020/12/04 07:14:39;;;;;;;0.50;0.40;;;16.50;59.20;;;;;;5095217;28;20106;-70
2020/12/04 07:17:05;;;;;;;2.95;0.50;;;16.60;59.40;;;;;;5094781;28;20032;-72
2020/12/04 07:19:31;;;;;;;3.15;0.60;;;16.60;59.30;;;;;;5095051;28;20022;-71
2020/12/04 07:21:56;;;;;;;5.90;0.73;;;16.70;59.30;;;;;;5094652;28;20606;-72
2020/12/04 07:24:22;;;;;;;0.80;0.40;;;16.70;59.30;;;;;;5094704;28;20020;-71
2020/12/04 07:26:54;;;;;;;1.60;0.60;;;16.80;59.10;;;;;;5094930;28;20023;-71
2020/12/04 07:29:22;;;;;;;2.70;0.85;;;16.90;58.90;;;;;;5094805;28;20382;-71
2020/12/04 07:31:49;;;;;;;4.05;0.60;;;17.00;58.70;;;;;;5094774;28;20446;-72
2020/12/04 07:34:20;;;;;;;1.80;0.45;;;17.00;58.80;;;;;;5093889;28;20382;-72
2020/12/04 07:36:55;;;;;;;3.67;0.80;;;17.00;58.50;;;;;;5093134;28;20031;-72
2020/12/04 07:39:23;;;;;;;2.45;0.65;;;17.10;58.30;;;;;;5093340;28;20024;-71
2020/12/04 07:41:49;;;;;;;3.45;0.60;;;17.20;58.20;;;;;;5094205;28;20028;-71
2020/12/04 07:44:15;;;;;;;1.70;0.40;;;17.20;58.30;;;;;;5094655;28;20064;-71
2020/12/04 07:46:40;;;;;;;2.05;0.50;;;17.20;58.20;;;;;;5094338;28;20067;-71
2020/12/04 07:49:13;;;;;;;1.63;0.50;;;17.20;58.10;;;;;;5094293;28;20024;-71
2020/12/04 07:51:41;;;;;;;1.45;0.80;;;17.30;58.10;;;;;;5094541;28;20024;-71
2020/12/04 07:54:22;;;;;;;3.63;0.52;;;17.20;58.20;;;;;;5094496;28;20028;-71
2020/12/04 07:56:53;;;;;;;1.05;0.40;;;17.30;58.10;;;;;;5094338;28;20023;-71
2020/12/04 07:59:39;;;;;;;2.30;0.50;;;17.30;57.90;;;;;;5093151;28;20035;-72
2020/12/04 08:02:07;;;;;;;2.00;0.30;;;17.30;57.90;;;;;;5093963;28;20050;-71
2020/12/04 08:04:33;;;;;;;0.88;0.30;;;17.30;58.00;;;;;;5093998;28;20016;-71
2020/12/04 08:07:07;;;;;;;1.27;0.30;;;17.40;57.80;;;;;;5094218;28;20028;-71
2020/12/04 08:09:38;;;;;;;1.98;0.43;;;17.40;57.60;;;;;;5094131;28;20016;-72
2020/12/04 08:12:08;;;;;;;1.30;0.32;;;17.50;58.30;;;;;;5093938;28;20031;-71
2020/12/04 08:14:36;;;;;;;0.52;0.43;;;17.40;57.70;;;;;;5094114;28;20034;-71
2020/12/04 08:17:06;;;;;;;2.28;0.43;;;17.40;57.80;;;;;;5093714;28;20028;-71
2020/12/04 08:19:33;;;;;;;1.00;0.32;;;17.40;57.80;;;;;;5093612;28;20547;-72
2020/12/04 08:22:05;;;;;;;0.68;0.40;;;17.30;57.90;;;;;;5093422;28;20059;-71
2020/12/04 08:24:34;;;;;;;0.88;0.40;;;17.30;58.10;;;;;;5093834;28;20039;-72
2020/12/04 08:27:11;;;;;;;1.35;0.30;;;17.30;58.10;;;;;;5093785;28;20016;-71
2020/12/04 08:29:42;;;;;;;2.05;0.30;;;17.30;58.10;;;;;;5093781;28;20024;-72
2020/12/04 08:32:20;;;;;;;1.00;0.40;;;17.30;58.10;;;;;;5093771;28;20024;-72
2020/12/04 08:34:48;;;;;;;0.50;0.20;;;17.30;58.10;;;;;;5093697;28;20050;-72
2020/12/04 08:37:16;;;;;;;0.98;0.40;;;17.30;58.10;;;;;;5093668;28;20024;-72
2020/12/04 08:39:48;;;;;;;0.93;0.32;;;17.30;58.00;;;;;;5093188;28;20489;-72
2020/12/04 08:42:19;;;;;;;0.80;0.30;;;17.30;58.00;;;;;;5093657;28;20073;-72
2020/12/04 08:44:55;;;;;;;0.30;0.30;;;17.20;58.00;;;;;;5093432;28;20032;-72
2020/12/04 08:47:37;;;;;;;1.20;0.40;;;17.30;58.00;;;;;;5093540;28;20047;-72
2020/12/04 08:50:09;;;;;;;0.30;0.25;;;17.30;57.90;;;;;;5093178;28;20028;-71
2020/12/04 08:52:44;;;;;;;0.95;0.38;;;17.30;57.90;;;;;;5093415;28;20287;-71
2020/12/04 08:55:14;;;;;;;0.52;0.20;;;17.30;57.80;;;;;;5093391;28;20057;-72
2020/12/04 08:57:41;;;;;;;0.65;0.40;;;17.30;57.80;;;;;;5093307;28;20028;-71
2020/12/04 09:00:09;;;;;;;0.65;0.30;;;17.30;57.70;;;;;;5093234;28;20107;-72
2020/12/04 09:02:37;;;;;;;0.25;0.20;;;17.30;57.70;;;;;;5092724;28;20027;-72
2020/12/04 09:05:05;;;;;;;2.20;0.43;;;17.30;57.70;;;;;;5093049;28;20031;-71
2020/12/04 09:07:30;;;;;;;1.17;0.40;;;17.30;57.70;;;;;;5093065;28;20409;-71
2020/12/04 09:09:56;;;;;;;0.35;0.20;;;17.30;57.60;;;;;;5093103;28;20099;-71
2020/12/04 09:12:24;;;;;;;0.60;0.30;;;17.30;57.70;;;;;;5092710;28;20020;-71
2020/12/04 09:14:50;;;;;;;0.40;0.30;;;17.40;57.70;;;;;;5093077;28;20051;-71
2020/12/04 09:17:17;;;;;;;0.63;0.22;;;17.40;57.60;;;;;;5093081;28;20385;-71
2020/12/04 09:19:44;;;;;;;0.20;0.20;;;17.40;57.50;;;;;;5092923;28;20024;-71
2020/12/04 09:22:29;;;;;;;0.50;0.20;;;17.40;57.40;;;;;;5092307;28;20142;-71
2020/12/04 09:24:55;;;;;;;0.50;0.25;;;17.40;57.50;;;;;;5092764;28;20052;-71
2020/12/04 09:27:20;;;;;;;1.77;0.30;;;17.40;57.50;;;;;;5093058;28;20051;-71
2020/12/04 09:29:46;;;;;;;0.93;0.40;;;17.40;57.50;;;;;;5092970;28;20024;-71
2020/12/04 09:32:15;;;;;;;0.63;0.20;;;17.40;57.50;;;;;;5092793;28;20069;-71
2020/12/04 09:34:43;;;;;;;1.85;0.30;;;17.30;57.30;;;;;;5092805;28;20047;-72
2020/12/04 09:37:30;;;;;;;0.47;0.25;;;17.30;57.40;;;;;;5092933;28;20024;-71
2020/12/04 09:39:58;;;;;;;0.50;0.20;;;17.30;57.50;;;;;;5092523;28;20605;-71
2020/12/04 09:42:25;;;;;;;0.30;0.22;;;17.30;57.50;;;;;;5092807;28;20066;-72
2020/12/04 09:44:52;;;;;;;0.47;0.20;;;17.30;57.50;;;;;;5092745;28;20051;-71
2020/12/04 09:47:18;;;;;;;0.40;0.30;;;17.30;57.50;;;;;;5092435;28;20027;-71
2020/12/04 09:49:45;;;;;;;0.20;0.20;;;17.20;57.50;;;;;;5092606;28;20024;-71
2020/12/04 09:52:12;;;;;;;0.43;0.20;;;17.20;57.50;;;;;;5092634;28;20024;-71
2020/12/04 09:54:40;;;;;;;0.20;0.20;;;17.20;57.50;;;;;;5092604;28;20027;-71
2020/12/04 09:57:08;;;;;;;0.25;0.17;;;17.20;57.50;;;;;;5092276;28;20028;-71
2020/12/04 09:59:34;;;;;;;0.65;0.30;;;17.10;57.60;;;;;;5092139;28;20039;-71
2020/12/04 10:02:01;;;;;;;1.10;0.38;;;17.10;57.60;;;;;;5092231;28;20105;-71
2020/12/04 10:04:27;;;;;;;0.63;0.28;;;17.10;57.50;;;;;;5092300;28;20473;-72
2020/12/04 10:06:54;;;;;;;0.35;0.20;;;17.00;57.60;;;;;;5092533;28;20048;-72
2020/12/04 10:09:20;;;;;;;0.95;0.40;;;17.00;57.70;;;;;;5092421;28;20020;-72
2020/12/04 10:11:47;;;;;;;0.20;0.10;;;17.00;57.70;;;;;;5092448;28;20043;-72
2020/12/04 10:14:14;;;;;;;0.47;0.32;;;16.90;57.70;;;;;;5092440;28;20019;-72
2020/12/04 10:16:43;;;;;;;1.48;0.43;;;16.90;57.80;;;;;;5092429;28;20024;-71
2020/12/04 10:19:11;;;;;;;0.45;0.25;;;16.90;57.80;;;;;;5092424;28;20024;-71
2020/12/04 10:21:37;;;;;;;0.40;0.20;;;16.90;57.80;;;;;;5092035;28;20116;-71
2020/12/04 10:24:05;;;;;;;0.47;0.30;;;16.90;57.80;;;;;;5095147;28;20482;-71
2020/12/04 10:26:30;;;;;;;0.30;0.30;;;16.90;57.50;;;;;;5077578;28;20055;-71
2020/12/04 10:28:56;;;;;;;0.28;0.20;;;16.90;57.40;;;;;;5096076;28;20054;-72
2020/12/04 10:31:22;;;;;;;0.30;0.20;;;17.00;57.40;;;;;;5096085;28;20425;-72
2020/12/04 10:33:48;;;;;;;0.52;0.40;;;17.00;57.40;;;;;;5095944;28;20389;-72
2020/12/04 10:36:14;;;;;;;0.22;0.20;;;17.00;57.30;;;;;;5095724;28;20020;-71
2020/12/04 10:38:41;;;;;;;0.60;0.22;;;17.10;57.30;;;;;;5095901;28;20035;-71
2020/12/04 10:41:07;;;;;;;0.40;0.20;;;17.10;57.20;;;;;;5095799;28;20027;-72
2020/12/04 10:43:33;;;;;;;0.60;0.28;;;17.10;57.30;;;;;;5095790;28;20107;-71
2020/12/04 10:45:58;;;;;;;0.20;0.20;;;17.10;57.30;;;;;;5095418;28;20038;-71
2020/12/04 10:48:24;;;;;;;0.20;0.20;;;17.10;57.20;;;;;;5095445;28;20035;-71
2020/12/04 10:50:50;;;;;;;1.45;0.30;;;17.10;57.20;;;;;;5095600;28;20030;-72
2020/12/04 10:53:15;;;;;;;0.57;0.20;;;17.00;57.10;;;;;;5095694;28;20116;-71
2020/12/04 10:55:44;;;;;;;0.20;0.20;;;17.20;57.20;;;;;;5095529;28;20163;-71
2020/12/04 10:58:13;;;;;;;0.20;0.20;;;17.30;57.10;;;;;;5095137;28;20024;-71
2020/12/04 11:00:38;;;;;;;0.65;0.30;;;17.30;57.00;;;;;;5095344;28;20031;-72
2020/12/04 11:03:15;;;;;;;0.20;0.20;;;17.30;57.00;;;;;;5095481;28;20023;-71
2020/12/04 11:05:42;;;;;;;0.63;0.30;;;17.30;57.00;;;;;;5095165;28;20035;-71
2020/12/04 11:08:09;;;;;;;0.20;0.20;;;17.30;57.00;;;;;;5095356;28;20021;-71
2020/12/04 11:10:35;;;;;;;0.20;0.20;;;17.30;57.10;;;;;;5094968;28;20470;-71
2020/12/04 11:13:02;;;;;;;0.85;0.30;;;17.30;57.20;;;;;;5095225;28;20043;-71
2020/12/04 11:15:28;;;;;;;0.52;0.28;;;17.30;57.20;;;;;;5095242;28;20449;-71
2020/12/04 11:17:54;;;;;;;0.30;0.20;;;17.30;57.20;;;;;;5094906;28;20028;-72
2020/12/04 11:20:22;;;;;;;0.25;0.20;;;17.30;57.20;;;;;;5076602;28;20518;-71
2020/12/04 11:22:47;;;;;;;0.20;0.20;;;17.30;57.20;;;;;;5094571;28;20421;-71
2020/12/04 11:25:13;;;;;;;0.25;0.25;;;17.20;57.20;;;;;;5094787;28;20088;-72
2020/12/04 11:27:43;;;;;;;0.20;0.20;;;17.20;57.20;;;;;;5094979;28;20182;-72
2020/12/04 11:30:09;;;;;;;1.40;0.28;;;17.20;57.30;;;;;;5094695;28;20012;-71
2020/12/04 11:32:42;;;;;;;0.30;0.20;;;17.20;57.30;;;;;;5094864;28;20028;-72
2020/12/04 11:35:10;;;;;;;0.47;0.45;;;17.20;57.40;;;;;;5094310;28;20059;-71
2020/12/04 11:37:35;;;;;;;0.82;0.30;;;17.20;57.40;;;;;;5094786;28;20355;-71
2020/12/04 11:40:04;;;;;;;0.65;0.30;;;17.10;57.40;;;;;;5094683;28;20074;-71
2020/12/04 11:42:29;;;;;;;0.10;0.10;;;17.10;57.30;;;;;;5094698;28;20024;-72
2020/12/04 11:44:56;;;;;;;0.40;0.30;;;17.10;57.40;;;;;;5094607;28;20043;-71
2020/12/04 11:47:25;;;;;;;0.60;0.20;;;17.10;57.40;;;;;;5094607;28;20028;-71
2020/12/04 11:49:50;;;;;;;0.30;0.20;;;17.00;57.40;;;;;;5094119;28;20028;-71
2020/12/04 11:52:16;;;;;;;0.17;0.10;;;17.00;57.40;;;;;;5094478;28;20031;-72
2020/12/04 11:54:44;;;;;;;0.30;0.20;;;17.00;57.50;;;;;;5094239;28;20095;-71
2020/12/04 11:57:09;;;;;;;0.63;0.35;;;17.00;57.50;;;;;;5094290;28;20053;-71
2020/12/04 11:59:35;;;;;;;0.30;0.30;;;17.00;57.50;;;;;;5094067;28;20401;-71
2020/12/04 12:02:00;;;;;;;0.30;0.28;;;16.90;57.50;;;;;;5094247;28;20063;-72
2020/12/04 12:04:26;;;;;;;0.60;0.30;;;17.00;57.50;;;;;;5093992;28;20020;-71
2020/12/04 12:06:51;;;;;;;0.35;0.30;;;17.00;57.50;;;;;;5093796;28;20016;-71
2020/12/04 12:09:17;;;;;;;0.85;0.25;;;16.90;57.40;;;;;;5093807;28;20028;-72
2020/12/04 12:11:43;;;;;;;0.40;0.30;;;16.90;57.40;;;;;;5094106;28;20150;-72
2020/12/04 12:14:08;;;;;;;0.20;0.20;;;16.90;57.40;;;;;;5075791;28;20421;-72
2020/12/04 12:16:34;;;;;;;0.20;0.20;;;16.90;57.30;;;;;;5093840;28;20028;-71
2020/12/04 12:18:59;;;;;;;0.28;0.20;;;16.80;57.20;;;;;;5093630;28;20020;-71
2020/12/04 12:21:25;;;;;;;0.40;0.30;;;16.80;57.20;;;;;;5093831;28;20127;-71
2020/12/04 12:23:51;;;;;;;0.20;0.20;;;16.80;57.20;;;;;;5093358;28;20526;-71
2020/12/04 12:26:17;;;;;;;0.52;0.20;;;16.80;57.10;;;;;;5093814;28;20023;-71
2020/12/04 12:28:42;;;;;;;0.30;0.30;;;16.80;57.10;;;;;;5093538;28;20040;-72
2020/12/04 12:31:08;;;;;;;0.40;0.28;;;16.80;57.10;;;;;;5093514;28;20020;-71
2020/12/04 12:33:33;;;;;;;0.20;0.20;;;16.80;57.20;;;;;;5093572;28;20042;-71
2020/12/04 12:35:59;;;;;;;0.20;0.20;;;16.80;57.10;;;;;;5093756;28;20039;-72
2020/12/04 12:38:25;;;;;;;0.17;0.13;;;16.90;57.10;;;;;;5093413;28;20050;-72
2020/12/04 12:40:50;;;;;;;0.20;0.20;;;16.90;57.00;;;;;;5093455;28;20474;-72
2020/12/04 12:43:17;;;;;;;0.20;0.10;;;17.00;57.00;;;;;;5093474;28;20470;-71
2020/12/04 12:45:43;;;;;;;0.10;0.10;;;17.00;56.90;;;;;;5092814;28;20035;-71
2020/12/04 12:48:09;;;;;;;0.20;0.20;;;17.20;56.80;;;;;;5093376;28;20016;-72
2020/12/04 12:50:35;;;;;;;0.20;0.20;;;17.30;56.50;;;;;;5093296;28;20024;-71
2020/12/04 12:53:00;;;;;;;0.40;0.13;;;17.20;56.40;;;;;;5092986;28;20020;-72